Pioneer Star — H8OT — position and weather

sailwx.info

Track history (hours):
 
Tides and Currents Weather Stations Pressure Air Temp Water Temp Dewpoint Dewpoint Depression Visibility Wind Speed Wind Dir Waves Ship Positions

Pioneer Star

Last reported at 2018-Jun-16 06:15 UTC. Time now 2018-Jun-18 07:45 UTC.
Position N 43°36' W 005°58'.

Length 95 m; draft 3.9 m.

Type: Cargo ship. MMSI: 370801000.

Date/timePositionNaut miles runAvg speedWind from/ knotsBaromVisibWave heightAir tempDewpointWater temp
2018-Jun-16 06:15N 43°36' W 005°58'0 0.0
2018-Jun-16 04:33N 43°36' W 005°58'0 0.0
2018-Jun-16 04:27N 43°36' W 005°58'0 0.0
2018-Jun-15 19:39N 43°36' W 005°58'0 0.0
2018-Jun-15 19:27N 43°36' W 005°58'0 0.0
2018-Jun-15 18:57N 43°36' W 005°58'0 0.0
2018-Jun-15 17:03N 43°36' W 005°58'0 0.0
2018-Jun-15 14:39N 43°36' W 005°58'0 0.0
2018-Jun-15 09:57N 43°36' W 005°58'0 0.0
2018-Jun-15 04:03N 43°36' W 005°58'0 0.1
2018-Jun-15 03:45N 43°36' W 005°59'0 0.1
2018-Jun-15 03:27N 43°36' W 005°59'1 3.0
2018-Jun-15 02:59N 43°37' W 006°00'611.2
2018-Jun-15 02:28N 43°38' W 006°08'  
2018-Jun-09 05:05N 39°20' W 009°48'2 9.4
2018-Jun-09 04:54N 39°18' W 009°48'4 9.2
2018-Jun-09 04:30N 39°14' W 009°48'5 9.4
2018-Jun-09 03:58N 39°09' W 009°49'5 9.8
2018-Jun-09 03:30N 39°05' W 009°50'5 9.8
2018-Jun-09 03:01N 39°00' W 009°51'5 9.7
2018-Jun-09 02:30N 38°55' W 009°52'5 9.6
2018-Jun-09 02:00N 38°50' W 009°53'5 9.5
2018-Jun-09 01:30N 38°46' W 009°52'5 9.5
2018-Jun-09 01:00N 38°41' W 009°50'5 9.4
2018-Jun-09 00:30N 38°36' W 009°50'5 9.8
2018-Jun-09 00:00N 38°32' W 009°49'5 9.9
2018-Jun-08 23:30N 38°27' W 009°48'5 9.8
2018-Jun-08 23:00N 38°22' W 009°47'5 9.8
2018-Jun-08 22:30N 38°17' W 009°45'6 9.6
2018-Jun-08 21:56N 38°12' W 009°42'4 9.7
2018-Jun-08 21:29N 38°08' W 009°41'5 9.7
2018-Jun-08 21:00N 38°03' W 009°39'5 9.6
2018-Jun-08 20:30N 37°59' W 009°38'7 9.7
2018-Jun-08 19:49N 37°52' W 009°36'3 9.8
2018-Jun-08 19:29N 37°49' W 009°35'  
Track history (hours):
 
Tides and Currents Weather Stations Pressure Air Temp Water Temp Dewpoint Dewpoint Depression Visibility Wind Speed Wind Dir Waves Ship Positions

Pioneer Star

Last reported at 2018-Jun-16 06:15 UTC. Time now 2018-Jun-18 07:45 UTC.
Position N 43°36' W 005°58'.

Length 95 m; draft 3.9 m.

Type: Cargo ship. MMSI: 370801000.

Date/timePositionNaut miles runAvg speedWind from/ knotsBaromVisibWave heightAir tempDewpointWater temp
2018-Jun-16 06:15N 43°36' W 005°58'0 0.0
2018-Jun-16 04:33N 43°36' W 005°58'0 0.0
2018-Jun-16 04:27N 43°36' W 005°58'0 0.0
2018-Jun-15 19:39N 43°36' W 005°58'0 0.0
2018-Jun-15 19:27N 43°36' W 005°58'0 0.0
2018-Jun-15 18:57N 43°36' W 005°58'0 0.0
2018-Jun-15 17:03N 43°36' W 005°58'0 0.0
2018-Jun-15 14:39N 43°36' W 005°58'0 0.0
2018-Jun-15 09:57N 43°36' W 005°58'0 0.0
2018-Jun-15 04:03N 43°36' W 005°58'0 0.1
2018-Jun-15 03:45N 43°36' W 005°59'0 0.1
2018-Jun-15 03:27N 43°36' W 005°59'1 3.0
2018-Jun-15 02:59N 43°37' W 006°00'611.2
2018-Jun-15 02:28N 43°38' W 006°08'  
2018-Jun-09 05:05N 39°20' W 009°48'2 9.4
2018-Jun-09 04:54N 39°18' W 009°48'4 9.2
2018-Jun-09 04:30N 39°14' W 009°48'5 9.4
2018-Jun-09 03:58N 39°09' W 009°49'5 9.8
2018-Jun-09 03:30N 39°05' W 009°50'5 9.8
2018-Jun-09 03:01N 39°00' W 009°51'5 9.7
2018-Jun-09 02:30N 38°55' W 009°52'5 9.6
2018-Jun-09 02:00N 38°50' W 009°53'5 9.5
2018-Jun-09 01:30N 38°46' W 009°52'5 9.5
2018-Jun-09 01:00N 38°41' W 009°50'5 9.4
2018-Jun-09 00:30N 38°36' W 009°50'5 9.8
2018-Jun-09 00:00N 38°32' W 009°49'5 9.9
2018-Jun-08 23:30N 38°27' W 009°48'5 9.8
2018-Jun-08 23:00N 38°22' W 009°47'5 9.8
2018-Jun-08 22:30N 38°17' W 009°45'6 9.6
2018-Jun-08 21:56N 38°12' W 009°42'4 9.7
2018-Jun-08 21:29N 38°08' W 009°41'5 9.7
2018-Jun-08 21:00N 38°03' W 009°39'5 9.6
2018-Jun-08 20:30N 37°59' W 009°38'7 9.7
2018-Jun-08 19:49N 37°52' W 009°36'3 9.8
2018-Jun-08 19:29N 37°49' W 009°35'  

Dump ship's entire track history